sensor_id;sensor_type;location;lat;lon;timestamp;temperature;humidity
36586;DHT22;22591;48.314;11.562;2024-02-23T00:00:35;8.10;99.90
36586;DHT22;22591;48.314;11.562;2024-02-23T00:03:00;7.90;99.90
36586;DHT22;22591;48.314;11.562;2024-02-23T00:05:26;7.90;99.90
36586;DHT22;22591;48.314;11.562;2024-02-23T00:07:51;7.90;99.90
36586;DHT22;22591;48.314;11.562;2024-02-23T00:10:17;7.80;99.90
36586;DHT22;22591;48.314;11.562;2024-02-23T00:12:42;7.70;99.90
36586;DHT22;22591;48.314;11.562;2024-02-23T00:15:10;7.70;99.90
36586;DHT22;22591;48.314;11.562;2024-02-23T00:17:36;7.70;99.90
36586;DHT22;22591;48.314;11.562;2024-02-23T00:20:01;7.60;99.90
36586;DHT22;22591;48.314;11.562;2024-02-23T00:22:27;7.60;99.90
36586;DHT22;22591;48.314;11.562;2024-02-23T00:24:52;7.60;99.90
36586;DHT22;22591;48.314;11.562;2024-02-23T00:27:18;7.60;99.90
36586;DHT22;22591;48.314;11.562;2024-02-23T00:29:44;7.60;99.90
36586;DHT22;22591;48.314;11.562;2024-02-23T00:32:09;7.60;99.90
36586;DHT22;22591;48.314;11.562;2024-02-23T00:34:35;7.60;99.90
36586;DHT22;22591;48.314;11.562;2024-02-23T00:37:01;7.60;99.90
36586;DHT22;22591;48.314;11.562;2024-02-23T00:39:27;7.50;99.90
36586;DHT22;22591;48.314;11.562;2024-02-23T00:41:52;7.50;99.90
36586;DHT22;22591;48.314;11.562;2024-02-23T00:44:18;7.50;99.90
36586;DHT22;22591;48.314;11.562;2024-02-23T00:46:44;7.50;99.90
36586;DHT22;22591;48.314;11.562;2024-02-23T00:49:09;7.50;99.90
36586;DHT22;22591;48.314;11.562;2024-02-23T00:51:35;7.40;99.90
36586;DHT22;22591;48.314;11.562;2024-02-23T00:54:01;7.50;99.90
36586;DHT22;22591;48.314;11.562;2024-02-23T00:56:27;7.40;99.90
36586;DHT22;22591;48.314;11.562;2024-02-23T00:58:53;7.40;99.90
36586;DHT22;22591;48.314;11.562;2024-02-23T01:01:18;7.40;99.90
36586;DHT22;22591;48.314;11.562;2024-02-23T01:03:44;7.40;99.90
36586;DHT22;22591;48.314;11.562;2024-02-23T01:06:09;7.40;99.90
36586;DHT22;22591;48.314;11.562;2024-02-23T01:08:35;7.40;99.90
36586;DHT22;22591;48.314;11.562;2024-02-23T01:11:01;7.40;99.90
36586;DHT22;22591;48.314;11.562;2024-02-23T01:13:27;7.30;99.90
36586;DHT22;22591;48.314;11.562;2024-02-23T01:15:52;7.40;99.90
36586;DHT22;22591;48.314;11.562;2024-02-23T01:18:19;7.40;99.90
36586;DHT22;22591;48.314;11.562;2024-02-23T01:20:45;7.40;99.90
36586;DHT22;22591;48.314;11.562;2024-02-23T01:23:10;7.30;99.90
36586;DHT22;22591;48.314;11.562;2024-02-23T01:25:36;7.40;99.90
36586;DHT22;22591;48.314;11.562;2024-02-23T01:28:03;7.40;99.90
36586;DHT22;22591;48.314;11.562;2024-02-23T01:30:28;7.40;99.90
36586;DHT22;22591;48.314;11.562;2024-02-23T01:32:54;7.40;99.90
36586;DHT22;22591;48.314;11.562;2024-02-23T01:35:19;7.30;99.90
36586;DHT22;22591;48.314;11.562;2024-02-23T01:37:45;7.20;99.90
36586;DHT22;22591;48.314;11.562;2024-02-23T01:40:10;7.20;99.90
36586;DHT22;22591;48.314;11.562;2024-02-23T01:42:36;7.10;99.90
36586;DHT22;22591;48.314;11.562;2024-02-23T01:45:02;7.30;99.90
36586;DHT22;22591;48.314;11.562;2024-02-23T01:47:29;7.20;99.90
36586;DHT22;22591;48.314;11.562;2024-02-23T01:49:56;7.10;99.90
36586;DHT22;22591;48.314;11.562;2024-02-23T01:52:22;7.20;99.90
36586;DHT22;22591;48.314;11.562;2024-02-23T01:54:47;7.10;99.90
36586;DHT22;22591;48.314;11.562;2024-02-23T01:57:14;7.10;99.90
36586;DHT22;22591;48.314;11.562;2024-02-23T01:59:39;7.10;99.90
36586;DHT22;22591;48.314;11.562;2024-02-23T02:02:05;7.00;99.90
36586;DHT22;22591;48.314;11.562;2024-02-23T02:04:31;7.00;99.90
36586;DHT22;22591;48.314;11.562;2024-02-23T02:06:58;7.00;99.90
36586;DHT22;22591;48.314;11.562;2024-02-23T02:09:25;7.00;99.90
36586;DHT22;22591;48.314;11.562;2024-02-23T02:11:51;6.90;99.90
36586;DHT22;22591;48.314;11.562;2024-02-23T02:14:17;6.90;99.90
36586;DHT22;22591;48.314;11.562;2024-02-23T02:16:43;6.80;99.90
36586;DHT22;22591;48.314;11.562;2024-02-23T02:19:10;6.80;99.90
36586;DHT22;22591;48.314;11.562;2024-02-23T02:21:36;6.80;99.90
36586;DHT22;22591;48.314;11.562;2024-02-23T02:24:02;6.80;99.90
36586;DHT22;22591;48.314;11.562;2024-02-23T02:26:28;6.80;99.90
36586;DHT22;22591;48.314;11.562;2024-02-23T02:28:54;6.60;99.90
36586;DHT22;22591;48.314;11.562;2024-02-23T02:31:19;6.70;99.90
36586;DHT22;22591;48.314;11.562;2024-02-23T02:33:45;6.60;99.90
36586;DHT22;22591;48.314;11.562;2024-02-23T02:36:10;6.60;99.90
36586;DHT22;22591;48.314;11.562;2024-02-23T02:38:37;6.50;99.90
36586;DHT22;22591;48.314;11.562;2024-02-23T02:41:03;6.50;99.90
36586;DHT22;22591;48.314;11.562;2024-02-23T02:43:28;6.40;99.90
36586;DHT22;22591;48.314;11.562;2024-02-23T02:45:54;6.40;99.90
36586;DHT22;22591;48.314;11.562;2024-02-23T02:48:19;6.40;99.90
36586;DHT22;22591;48.314;11.562;2024-02-23T02:50:45;6.30;99.90
36586;DHT22;22591;48.314;11.562;2024-02-23T02:53:11;6.30;99.90
36586;DHT22;22591;48.314;11.562;2024-02-23T02:55:41;6.30;99.90
36586;DHT22;22591;48.314;11.562;2024-02-23T02:58:06;6.30;99.90
36586;DHT22;22591;48.314;11.562;2024-02-23T03:00:32;6.20;99.90
36586;DHT22;22591;48.314;11.562;2024-02-23T03:02:57;6.10;99.90
36586;DHT22;22591;48.314;11.562;2024-02-23T03:05:23;6.10;99.90
36586;DHT22;22591;48.314;11.562;2024-02-23T03:07:48;6.10;99.90
36586;DHT22;22591;48.314;11.562;2024-02-23T03:10:17;6.10;99.90
36586;DHT22;22591;48.314;11.562;2024-02-23T03:12:45;6.00;99.90
36586;DHT22;22591;48.314;11.562;2024-02-23T03:15:14;5.50;99.90
36586;DHT22;22591;48.314;11.562;2024-02-23T03:17:48;5.20;99.90
36586;DHT22;22591;48.314;11.562;2024-02-23T03:20:19;4.80;99.90
36586;DHT22;22591;48.314;11.562;2024-02-23T03:22:52;4.70;99.90
36586;DHT22;22591;48.314;11.562;2024-02-23T03:25:31;4.70;99.90
36586;DHT22;22591;48.314;11.562;2024-02-23T03:28:01;4.60;99.90
36586;DHT22;22591;48.314;11.562;2024-02-23T03:30:30;4.60;99.90
36586;DHT22;22591;48.314;11.562;2024-02-23T03:33:06;4.60;99.90
36586;DHT22;22591;48.314;11.562;2024-02-23T03:35:37;4.50;99.90
36586;DHT22;22591;48.314;11.562;2024-02-23T03:38:07;4.50;99.90
36586;DHT22;22591;48.314;11.562;2024-02-23T03:40:34;4.50;99.90
36586;DHT22;22591;48.314;11.562;2024-02-23T03:43:23;4.50;99.90
36586;DHT22;22591;48.314;11.562;2024-02-23T03:45:53;4.50;99.90
36586;DHT22;22591;48.314;11.562;2024-02-23T03:48:21;4.50;99.90
36586;DHT22;22591;48.314;11.562;2024-02-23T03:50:49;4.50;99.90
36586;DHT22;22591;48.314;11.562;2024-02-23T03:53:14;4.50;99.90
36586;DHT22;22591;48.314;11.562;2024-02-23T03:55:40;4.50;99.90
36586;DHT22;22591;48.314;11.562;2024-02-23T03:58:05;4.50;99.90
36586;DHT22;22591;48.314;11.562;2024-02-23T04:00:31;4.50;99.90
36586;DHT22;22591;48.314;11.562;2024-02-23T04:02:57;4.50;99.90
36586;DHT22;22591;48.314;11.562;2024-02-23T04:05:22;4.50;99.90
36586;DHT22;22591;48.314;11.562;2024-02-23T04:07:48;4.60;99.90
36586;DHT22;22591;48.314;11.562;2024-02-23T04:10:13;4.60;99.90
36586;DHT22;22591;48.314;11.562;2024-02-23T04:12:49;4.60;99.90
36586;DHT22;22591;48.314;11.562;2024-02-23T04:15:14;4.60;99.90
36586;DHT22;22591;48.314;11.562;2024-02-23T04:17:40;4.60;99.90
36586;DHT22;22591;48.314;11.562;2024-02-23T04:20:07;4.60;99.90
36586;DHT22;22591;48.314;11.562;2024-02-23T04:22:34;4.50;99.90
36586;DHT22;22591;48.314;11.562;2024-02-23T04:25:00;4.50;99.90
36586;DHT22;22591;48.314;11.562;2024-02-23T04:27:26;4.50;99.90
36586;DHT22;22591;48.314;11.562;2024-02-23T04:29:51;4.50;99.90
36586;DHT22;22591;48.314;11.562;2024-02-23T04:32:17;4.50;99.90
36586;DHT22;22591;48.314;11.562;2024-02-23T04:34:42;4.50;99.90
36586;DHT22;22591;48.314;11.562;2024-02-23T04:37:08;4.60;99.90
36586;DHT22;22591;48.314;11.562;2024-02-23T04:39:34;4.70;99.90
36586;DHT22;22591;48.314;11.562;2024-02-23T04:42:00;4.70;99.90
36586;DHT22;22591;48.314;11.562;2024-02-23T04:44:26;4.80;99.90
36586;DHT22;22591;48.314;11.562;2024-02-23T04:46:52;4.80;99.90
36586;DHT22;22591;48.314;11.562;2024-02-23T04:49:18;4.80;99.90
36586;DHT22;22591;48.314;11.562;2024-02-23T04:51:45;4.80;99.90
36586;DHT22;22591;48.314;11.562;2024-02-23T04:54:12;4.80;99.90
36586;DHT22;22591;48.314;11.562;2024-02-23T04:56:37;4.70;99.90
36586;DHT22;22591;48.314;11.562;2024-02-23T04:59:04;4.80;99.90
36586;DHT22;22591;48.314;11.562;2024-02-23T05:01:35;4.80;99.90
36586;DHT22;22591;48.314;11.562;2024-02-23T05:04:03;4.80;99.90
36586;DHT22;22591;48.314;11.562;2024-02-23T05:06:31;4.80;99.90
36586;DHT22;22591;48.314;11.562;2024-02-23T05:08:56;4.80;99.90
36586;DHT22;22591;48.314;11.562;2024-02-23T05:11:22;4.90;99.90
36586;DHT22;22591;48.314;11.562;2024-02-23T05:13:49;4.90;99.90
36586;DHT22;22591;48.314;11.562;2024-02-23T05:16:16;4.80;99.90
36586;DHT22;22591;48.314;11.562;2024-02-23T05:18:42;4.90;99.90
36586;DHT22;22591;48.314;11.562;2024-02-23T05:21:10;4.90;99.90
36586;DHT22;22591;48.314;11.562;2024-02-23T05:23:37;4.90;99.90
36586;DHT22;22591;48.314;11.562;2024-02-23T05:26:03;4.90;99.90
36586;DHT22;22591;48.314;11.562;2024-02-23T05:28:29;5.00;99.90
36586;DHT22;22591;48.314;11.562;2024-02-23T05:30:56;5.00;99.90
36586;DHT22;22591;48.314;11.562;2024-02-23T05:33:23;5.00;99.90
36586;DHT22;22591;48.314;11.562;2024-02-23T05:35:50;5.00;99.90
36586;DHT22;22591;48.314;11.562;2024-02-23T05:38:17;5.00;99.90
36586;DHT22;22591;48.314;11.562;2024-02-23T05:40:43;5.00;99.90
36586;DHT22;22591;48.314;11.562;2024-02-23T05:43:12;4.90;99.90
36586;DHT22;22591;48.314;11.562;2024-02-23T05:45:41;4.90;99.90
36586;DHT22;22591;48.314;11.562;2024-02-23T05:48:08;4.90;99.90
36586;DHT22;22591;48.314;11.562;2024-02-23T05:50:36;4.90;99.90
36586;DHT22;22591;48.314;11.562;2024-02-23T05:53:02;4.90;99.90
36586;DHT22;22591;48.314;11.562;2024-02-23T05:55:32;4.90;99.90
36586;DHT22;22591;48.314;11.562;2024-02-23T05:57:58;5.00;99.90
36586;DHT22;22591;48.314;11.562;2024-02-23T06:00:25;4.90;99.90
36586;DHT22;22591;48.314;11.562;2024-02-23T06:02:51;4.90;99.90
36586;DHT22;22591;48.314;11.562;2024-02-23T06:05:17;4.90;99.90
36586;DHT22;22591;48.314;11.562;2024-02-23T06:07:44;4.90;99.90
36586;DHT22;22591;48.314;11.562;2024-02-23T06:10:10;4.90;99.90
36586;DHT22;22591;48.314;11.562;2024-02-23T06:12:38;4.90;99.90
36586;DHT22;22591;48.314;11.562;2024-02-23T06:15:04;4.90;99.90
36586;DHT22;22591;48.314;11.562;2024-02-23T06:17:32;4.90;99.90
36586;DHT22;22591;48.314;11.562;2024-02-23T06:19:59;5.00;99.90
36586;DHT22;22591;48.314;11.562;2024-02-23T06:22:25;4.90;99.90
36586;DHT22;22591;48.314;11.562;2024-02-23T06:24:51;4.90;99.90
36586;DHT22;22591;48.314;11.562;2024-02-23T06:27:16;4.80;99.90
36586;DHT22;22591;48.314;11.562;2024-02-23T06:29:44;4.80;99.90
36586;DHT22;22591;48.314;11.562;2024-02-23T06:32:11;4.80;99.90
36586;DHT22;22591;48.314;11.562;2024-02-23T06:34:39;4.80;99.90
36586;DHT22;22591;48.314;11.562;2024-02-23T06:37:05;4.80;99.90
36586;DHT22;22591;48.314;11.562;2024-02-23T06:39:33;4.70;99.90
36586;DHT22;22591;48.314;11.562;2024-02-23T06:42:00;4.80;99.90
36586;DHT22;22591;48.314;11.562;2024-02-23T06:44:29;4.70;99.90
36586;DHT22;22591;48.314;11.562;2024-02-23T06:46:54;4.80;99.90
36586;DHT22;22591;48.314;11.562;2024-02-23T06:49:21;4.80;99.90
36586;DHT22;22591;48.314;11.562;2024-02-23T06:51:46;4.70;99.90
36586;DHT22;22591;48.314;11.562;2024-02-23T06:54:12;4.70;99.90
36586;DHT22;22591;48.314;11.562;2024-02-23T06:56:37;4.70;99.90
36586;DHT22;22591;48.314;11.562;2024-02-23T06:59:03;4.70;99.90
36586;DHT22;22591;48.314;11.562;2024-02-23T07:01:31;4.70;99.90
36586;DHT22;22591;48.314;11.562;2024-02-23T07:04:00;4.70;99.90
36586;DHT22;22591;48.314;11.562;2024-02-23T07:06:26;4.70;99.90
36586;DHT22;22591;48.314;11.562;2024-02-23T07:08:54;4.70;99.90
36586;DHT22;22591;48.314;11.562;2024-02-23T07:11:20;4.70;99.90
36586;DHT22;22591;48.314;11.562;2024-02-23T07:13:48;4.70;99.90
36586;DHT22;22591;48.314;11.562;2024-02-23T07:16:15;4.70;99.90
36586;DHT22;22591;48.314;11.562;2024-02-23T07:18:41;4.70;99.90
36586;DHT22;22591;48.314;11.562;2024-02-23T07:21:08;4.70;99.90
36586;DHT22;22591;48.314;11.562;2024-02-23T07:23:35;4.70;99.90
36586;DHT22;22591;48.314;11.562;2024-02-23T07:26:02;4.70;99.90
36586;DHT22;22591;48.314;11.562;2024-02-23T07:28:27;4.70;99.90
36586;DHT22;22591;48.314;11.562;2024-02-23T07:30:55;4.80;99.90
36586;DHT22;22591;48.314;11.562;2024-02-23T07:33:21;4.80;99.90
36586;DHT22;22591;48.314;11.562;2024-02-23T07:35:48;4.80;99.90
36586;DHT22;22591;48.314;11.562;2024-02-23T07:38:16;4.80;99.90
36586;DHT22;22591;48.314;11.562;2024-02-23T07:40:45;4.80;99.90
36586;DHT22;22591;48.314;11.562;2024-02-23T07:43:11;4.80;99.90
36586;DHT22;22591;48.314;11.562;2024-02-23T07:45:38;4.80;99.90
36586;DHT22;22591;48.314;11.562;2024-02-23T07:48:07;4.90;99.90
36586;DHT22;22591;48.314;11.562;2024-02-23T07:50:35;4.90;99.90
36586;DHT22;22591;48.314;11.562;2024-02-23T07:53:01;4.90;99.90
36586;DHT22;22591;48.314;11.562;2024-02-23T07:55:27;4.90;99.90
36586;DHT22;22591;48.314;11.562;2024-02-23T07:57:53;4.90;99.90
36586;DHT22;22591;48.314;11.562;2024-02-23T08:00:23;4.90;99.90
36586;DHT22;22591;48.314;11.562;2024-02-23T08:02:49;4.90;99.90
36586;DHT22;22591;48.314;11.562;2024-02-23T08:05:16;4.90;99.90
36586;DHT22;22591;48.314;11.562;2024-02-23T08:07:44;5.00;99.90
36586;DHT22;22591;48.314;11.562;2024-02-23T08:10:12;5.00;99.90
36586;DHT22;22591;48.314;11.562;2024-02-23T08:12:38;5.00;99.90
36586;DHT22;22591;48.314;11.562;2024-02-23T08:15:06;5.00;99.90
36586;DHT22;22591;48.314;11.562;2024-02-23T08:17:32;5.00;99.90
36586;DHT22;22591;48.314;11.562;2024-02-23T08:19:59;5.00;99.90
36586;DHT22;22591;48.314;11.562;2024-02-23T08:22:26;5.00;99.90
36586;DHT22;22591;48.314;11.562;2024-02-23T08:24:53;5.10;99.90
36586;DHT22;22591;48.314;11.562;2024-02-23T08:27:20;5.10;99.90
36586;DHT22;22591;48.314;11.562;2024-02-23T08:29:48;5.10;99.90
36586;DHT22;22591;48.314;11.562;2024-02-23T08:32:14;5.20;99.90
36586;DHT22;22591;48.314;11.562;2024-02-23T08:34:42;5.30;99.90
36586;DHT22;22591;48.314;11.562;2024-02-23T08:37:08;5.20;99.90
36586;DHT22;22591;48.314;11.562;2024-02-23T08:39:33;5.30;99.90
36586;DHT22;22591;48.314;11.562;2024-02-23T08:42:03;5.30;99.90
36586;DHT22;22591;48.314;11.562;2024-02-23T08:44:28;5.30;99.90
36586;DHT22;22591;48.314;11.562;2024-02-23T08:46:55;5.30;99.90
36586;DHT22;22591;48.314;11.562;2024-02-23T08:49:23;5.40;99.90
36586;DHT22;22591;48.314;11.562;2024-02-23T08:51:48;5.40;99.90
36586;DHT22;22591;48.314;11.562;2024-02-23T08:54:15;5.50;99.90
36586;DHT22;22591;48.314;11.562;2024-02-23T08:56:41;5.50;99.90
36586;DHT22;22591;48.314;11.562;2024-02-23T08:59:10;5.50;99.90
36586;DHT22;22591;48.314;11.562;2024-02-23T09:01:37;5.40;99.90
36586;DHT22;22591;48.314;11.562;2024-02-23T09:04:03;5.40;99.90
36586;DHT22;22591;48.314;11.562;2024-02-23T09:06:30;5.50;99.90
36586;DHT22;22591;48.314;11.562;2024-02-23T09:09:01;5.50;99.90
36586;DHT22;22591;48.314;11.562;2024-02-23T09:11:26;5.50;99.90
36586;DHT22;22591;48.314;11.562;2024-02-23T09:13:53;5.40;99.90
36586;DHT22;22591;48.314;11.562;2024-02-23T09:16:19;5.50;99.90
36586;DHT22;22591;48.314;11.562;2024-02-23T09:18:46;5.40;99.90
36586;DHT22;22591;48.314;11.562;2024-02-23T09:21:13;5.40;99.90
36586;DHT22;22591;48.314;11.562;2024-02-23T09:23:39;5.50;99.90
36586;DHT22;22591;48.314;11.562;2024-02-23T09:26:09;5.50;99.90
36586;DHT22;22591;48.314;11.562;2024-02-23T09:28:36;5.40;99.90
36586;DHT22;22591;48.314;11.562;2024-02-23T09:31:06;5.50;99.90
36586;DHT22;22591;48.314;11.562;2024-02-23T09:33:34;5.40;99.90
36586;DHT22;22591;48.314;11.562;2024-02-23T09:36:00;5.40;99.90
36586;DHT22;22591;48.314;11.562;2024-02-23T09:38:27;5.50;99.90
36586;DHT22;22591;48.314;11.562;2024-02-23T09:40:57;5.50;99.90
36586;DHT22;22591;48.314;11.562;2024-02-23T09:43:30;5.40;99.90
36586;DHT22;22591;48.314;11.562;2024-02-23T09:46:00;5.50;99.90
36586;DHT22;22591;48.314;11.562;2024-02-23T09:48:29;5.40;99.90
36586;DHT22;22591;48.314;11.562;2024-02-23T09:50:59;5.40;99.90
36586;DHT22;22591;48.314;11.562;2024-02-23T09:53:25;5.50;99.90
36586;DHT22;22591;48.314;11.562;2024-02-23T09:55:53;5.50;99.90
36586;DHT22;22591;48.314;11.562;2024-02-23T09:58:23;5.50;99.90
36586;DHT22;22591;48.314;11.562;2024-02-23T10:00:52;5.50;99.90
36586;DHT22;22591;48.314;11.562;2024-02-23T10:03:20;5.50;99.90
36586;DHT22;22591;48.314;11.562;2024-02-23T10:05:47;5.50;99.90
36586;DHT22;22591;48.314;11.562;2024-02-23T10:08:14;5.50;99.90
36586;DHT22;22591;48.314;11.562;2024-02-23T10:10:40;5.60;99.90
36586;DHT22;22591;48.314;11.562;2024-02-23T10:13:06;5.60;99.90
36586;DHT22;22591;48.314;11.562;2024-02-23T10:15:33;5.60;99.90
36586;DHT22;22591;48.314;11.562;2024-02-23T10:17:59;5.70;99.90
36586;DHT22;22591;48.314;11.562;2024-02-23T10:20:24;5.70;99.90
36586;DHT22;22591;48.314;11.562;2024-02-23T10:22:50;5.70;99.90
36586;DHT22;22591;48.314;11.562;2024-02-23T10:25:18;5.70;99.90
36586;DHT22;22591;48.314;11.562;2024-02-23T10:27:45;5.70;99.90
36586;DHT22;22591;48.314;11.562;2024-02-23T10:30:12;5.80;99.90
36586;DHT22;22591;48.314;11.562;2024-02-23T10:32:41;5.80;99.90
36586;DHT22;22591;48.314;11.562;2024-02-23T10:35:13;5.80;99.90
36586;DHT22;22591;48.314;11.562;2024-02-23T10:37:43;5.80;99.90
36586;DHT22;22591;48.314;11.562;2024-02-23T10:40:12;5.90;99.90
36586;DHT22;22591;48.314;11.562;2024-02-23T10:42:44;5.90;99.90
36586;DHT22;22591;48.314;11.562;2024-02-23T10:45:16;5.90;99.90
36586;DHT22;22591;48.314;11.562;2024-02-23T10:47:45;6.00;99.90
36586;DHT22;22591;48.314;11.562;2024-02-23T10:50:12;6.00;99.90
36586;DHT22;22591;48.314;11.562;2024-02-23T10:52:43;6.10;99.90
36586;DHT22;22591;48.314;11.562;2024-02-23T10:55:10;6.10;99.90
36586;DHT22;22591;48.314;11.562;2024-02-23T10:57:36;6.20;99.90
36586;DHT22;22591;48.314;11.562;2024-02-23T11:00:03;6.10;99.90
36586;DHT22;22591;48.314;11.562;2024-02-23T11:02:34;6.10;99.90
36586;DHT22;22591;48.314;11.562;2024-02-23T11:05:01;6.10;99.90
36586;DHT22;22591;48.314;11.562;2024-02-23T11:07:30;6.10;99.90
36586;DHT22;22591;48.314;11.562;2024-02-23T11:10:04;6.20;99.90
36586;DHT22;22591;48.314;11.562;2024-02-23T11:12:31;6.20;99.90
36586;DHT22;22591;48.314;11.562;2024-02-23T11:15:29;6.20;99.90
36586;DHT22;22591;48.314;11.562;2024-02-23T11:17:56;6.20;99.90
36586;DHT22;22591;48.314;11.562;2024-02-23T11:20:23;6.20;99.90
36586;DHT22;22591;48.314;11.562;2024-02-23T11:22:52;6.10;99.90
36586;DHT22;22591;48.314;11.562;2024-02-23T11:25:26;6.10;99.90
36586;DHT22;22591;48.314;11.562;2024-02-23T11:27:54;6.20;99.90
36586;DHT22;22591;48.314;11.562;2024-02-23T11:30:20;6.20;99.90
36586;DHT22;22591;48.314;11.562;2024-02-23T11:32:49;6.20;99.90
36586;DHT22;22591;48.314;11.562;2024-02-23T11:35:19;6.20;99.90
36586;DHT22;22591;48.314;11.562;2024-02-23T11:37:56;6.20;99.90
36586;DHT22;22591;48.314;11.562;2024-02-23T11:40:28;6.30;99.90
36586;DHT22;22591;48.314;11.562;2024-02-23T11:42:56;6.20;99.90
36586;DHT22;22591;48.314;11.562;2024-02-23T11:45:25;6.20;99.90
36586;DHT22;22591;48.314;11.562;2024-02-23T11:47:51;6.30;99.90
36586;DHT22;22591;48.314;11.562;2024-02-23T11:50:18;6.30;99.90
36586;DHT22;22591;48.314;11.562;2024-02-23T11:52:47;6.30;99.90
36586;DHT22;22591;48.314;11.562;2024-02-23T11:55:21;6.20;99.90
36586;DHT22;22591;48.314;11.562;2024-02-23T11:57:49;6.30;99.90
36586;DHT22;22591;48.314;11.562;2024-02-23T12:00:16;6.30;99.90
36586;DHT22;22591;48.314;11.562;2024-02-23T12:02:43;6.30;99.90
36586;DHT22;22591;48.314;11.562;2024-02-23T12:05:11;6.30;99.90
36586;DHT22;22591;48.314;11.562;2024-02-23T12:07:37;6.30;99.90
36586;DHT22;22591;48.314;11.562;2024-02-23T12:10:04;6.30;99.90
36586;DHT22;22591;48.314;11.562;2024-02-23T12:12:33;6.20;99.90
36586;DHT22;22591;48.314;11.562;2024-02-23T12:15:01;6.20;99.90
36586;DHT22;22591;48.314;11.562;2024-02-23T12:17:29;6.20;99.90
36586;DHT22;22591;48.314;11.562;2024-02-23T12:19:59;6.20;99.90
36586;DHT22;22591;48.314;11.562;2024-02-23T12:22:28;6.20;99.90
36586;DHT22;22591;48.314;11.562;2024-02-23T12:24:58;6.00;99.90
36586;DHT22;22591;48.314;11.562;2024-02-23T12:27:25;5.90;99.90
36586;DHT22;22591;48.314;11.562;2024-02-23T12:29:53;5.80;99.90
36586;DHT22;22591;48.314;11.562;2024-02-23T12:32:21;5.80;99.90
36586;DHT22;22591;48.314;11.562;2024-02-23T12:34:46;5.90;99.90
36586;DHT22;22591;48.314;11.562;2024-02-23T12:37:15;5.80;99.90
36586;DHT22;22591;48.314;11.562;2024-02-23T12:39:43;5.80;99.90
36586;DHT22;22591;48.314;11.562;2024-02-23T12:42:10;5.80;99.90
36586;DHT22;22591;48.314;11.562;2024-02-23T12:44:37;5.90;99.90
36586;DHT22;22591;48.314;11.562;2024-02-23T12:47:03;5.80;99.90
36586;DHT22;22591;48.314;11.562;2024-02-23T12:49:29;5.70;99.90
36586;DHT22;22591;48.314;11.562;2024-02-23T12:51:56;6.00;99.90
36586;DHT22;22591;48.314;11.562;2024-02-23T12:54:22;6.10;99.90
36586;DHT22;22591;48.314;11.562;2024-02-23T12:56:47;6.00;99.90
36586;DHT22;22591;48.314;11.562;2024-02-23T12:59:13;6.00;99.90
36586;DHT22;22591;48.314;11.562;2024-02-23T13:01:39;5.90;99.90
36586;DHT22;22591;48.314;11.562;2024-02-23T13:04:05;5.70;99.90
36586;DHT22;22591;48.314;11.562;2024-02-23T13:06:39;5.60;99.90
36586;DHT22;22591;48.314;11.562;2024-02-23T13:09:08;5.60;99.90
36586;DHT22;22591;48.314;11.562;2024-02-23T13:11:35;5.50;99.90
36586;DHT22;22591;48.314;11.562;2024-02-23T13:14:04;5.40;99.90
36586;DHT22;22591;48.314;11.562;2024-02-23T13:16:29;5.50;99.90
36586;DHT22;22591;48.314;11.562;2024-02-23T13:18:57;5.50;99.90
36586;DHT22;22591;48.314;11.562;2024-02-23T13:21:23;5.60;99.90
36586;DHT22;22591;48.314;11.562;2024-02-23T13:23:49;5.60;99.90
36586;DHT22;22591;48.314;11.562;2024-02-23T13:26:15;5.60;99.90
36586;DHT22;22591;48.314;11.562;2024-02-23T13:28:44;5.50;99.90
36586;DHT22;22591;48.314;11.562;2024-02-23T13:31:12;5.50;99.90
36586;DHT22;22591;48.314;11.562;2024-02-23T13:33:37;5.50;99.90
36586;DHT22;22591;48.314;11.562;2024-02-23T13:36:03;5.50;99.90
36586;DHT22;22591;48.314;11.562;2024-02-23T13:38:29;5.50;99.90
36586;DHT22;22591;48.314;11.562;2024-02-23T13:40:58;5.50;99.90
36586;DHT22;22591;48.314;11.562;2024-02-23T13:43:23;5.50;99.90
36586;DHT22;22591;48.314;11.562;2024-02-23T13:45:52;5.60;99.90
36586;DHT22;22591;48.314;11.562;2024-02-23T13:48:21;5.50;99.90
36586;DHT22;22591;48.314;11.562;2024-02-23T13:50:48;5.40;99.90
36586;DHT22;22591;48.314;11.562;2024-02-23T13:53:15;5.50;99.90
36586;DHT22;22591;48.314;11.562;2024-02-23T13:55:42;5.50;99.90
36586;DHT22;22591;48.314;11.562;2024-02-23T13:58:09;5.50;99.90
36586;DHT22;22591;48.314;11.562;2024-02-23T14:00:35;5.50;99.90
36586;DHT22;22591;48.314;11.562;2024-02-23T14:03:02;5.60;99.90
36586;DHT22;22591;48.314;11.562;2024-02-23T14:05:31;5.50;99.90
36586;DHT22;22591;48.314;11.562;2024-02-23T14:07:56;5.30;99.90
36586;DHT22;22591;48.314;11.562;2024-02-23T14:10:23;5.30;99.90
36586;DHT22;22591;48.314;11.562;2024-02-23T14:12:50;5.30;99.90
36586;DHT22;22591;48.314;11.562;2024-02-23T14:15:17;5.30;99.90
36586;DHT22;22591;48.314;11.562;2024-02-23T14:17:45;5.30;99.90
36586;DHT22;22591;48.314;11.562;2024-02-23T14:20:11;5.30;99.90
36586;DHT22;22591;48.314;11.562;2024-02-23T14:22:39;5.30;99.90
36586;DHT22;22591;48.314;11.562;2024-02-23T14:25:06;5.30;99.90
36586;DHT22;22591;48.314;11.562;2024-02-23T14:27:36;5.30;99.90
36586;DHT22;22591;48.314;11.562;2024-02-23T14:30:03;5.30;99.90
36586;DHT22;22591;48.314;11.562;2024-02-23T14:32:28;5.30;99.90
36586;DHT22;22591;48.314;11.562;2024-02-23T14:34:54;5.30;99.90
36586;DHT22;22591;48.314;11.562;2024-02-23T14:37:20;5.30;99.90
36586;DHT22;22591;48.314;11.562;2024-02-23T14:39:47;5.30;99.90
36586;DHT22;22591;48.314;11.562;2024-02-23T14:42:12;5.20;99.90
36586;DHT22;22591;48.314;11.562;2024-02-23T14:44:42;5.20;99.90
36586;DHT22;22591;48.314;11.562;2024-02-23T14:47:09;5.20;99.90
36586;DHT22;22591;48.314;11.562;2024-02-23T14:49:35;5.10;99.90
36586;DHT22;22591;48.314;11.562;2024-02-23T14:52:03;5.10;99.90
36586;DHT22;22591;48.314;11.562;2024-02-23T14:54:29;5.10;99.90
36586;DHT22;22591;48.314;11.562;2024-02-23T14:56:55;5.00;99.90
36586;DHT22;22591;48.314;11.562;2024-02-23T14:59:20;5.00;99.90
36586;DHT22;22591;48.314;11.562;2024-02-23T15:01:47;5.00;99.90
36586;DHT22;22591;48.314;11.562;2024-02-23T15:04:13;5.00;99.90
36586;DHT22;22591;48.314;11.562;2024-02-23T15:06:39;5.00;99.90
36586;DHT22;22591;48.314;11.562;2024-02-23T15:09:08;5.00;99.90
36586;DHT22;22591;48.314;11.562;2024-02-23T15:11:36;4.90;99.90
36586;DHT22;22591;48.314;11.562;2024-02-23T15:14:01;4.90;99.90
36586;DHT22;22591;48.314;11.562;2024-02-23T15:16:28;5.00;99.90
36586;DHT22;22591;48.314;11.562;2024-02-23T15:18:55;5.00;99.90
36586;DHT22;22591;48.314;11.562;2024-02-23T15:21:20;4.90;99.90
36586;DHT22;22591;48.314;11.562;2024-02-23T15:23:46;4.90;99.90
36586;DHT22;22591;48.314;11.562;2024-02-23T15:26:14;4.80;99.90
36586;DHT22;22591;48.314;11.562;2024-02-23T15:28:40;4.80;99.90